createdAt,value
2023-03-11T00:00:18.685Z,2.63
2023-03-11T00:02:47.440Z,1.93
2023-03-11T00:05:16.202Z,2.17
2023-03-11T00:07:44.532Z,2.33
2023-03-11T00:10:16.486Z,1.90
2023-03-11T00:12:44.855Z,2.47
2023-03-11T00:15:13.379Z,1.90
2023-03-11T00:17:41.640Z,1.83
2023-03-11T00:20:11.715Z,4.00
2023-03-11T00:22:40.019Z,1.93
2023-03-11T00:25:08.883Z,2.20
2023-03-11T00:27:38.526Z,2.33
2023-03-11T00:30:07.815Z,2.20
2023-03-11T00:32:36.299Z,2.70
2023-03-11T00:35:04.908Z,1.97
2023-03-11T00:37:33.132Z,1.87
2023-03-11T00:40:01.438Z,2.07
2023-03-11T00:42:29.713Z,2.03
2023-03-11T00:44:59.370Z,1.70
2023-03-11T00:47:27.672Z,2.00
2023-03-11T00:49:55.895Z,1.90
2023-03-11T00:52:24.233Z,1.73
2023-03-11T00:54:52.503Z,1.60
2023-03-11T00:57:20.879Z,2.00
2023-03-11T00:59:49.226Z,2.23
2023-03-11T01:02:18.855Z,1.70
2023-03-11T01:04:47.118Z,1.77
2023-03-11T01:07:15.688Z,2.30
2023-03-11T01:09:44.011Z,2.17
2023-03-11T01:12:12.527Z,2.13
2023-03-11T01:14:40.819Z,2.27
2023-03-11T01:17:09.189Z,1.70
2023-03-11T01:19:40.219Z,2.27
2023-03-11T01:22:08.625Z,2.27
2023-03-11T01:24:36.934Z,2.10
2023-03-11T01:27:05.552Z,2.73
2023-03-11T01:29:33.834Z,2.93
2023-03-11T01:32:02.106Z,2.60
2023-03-11T01:34:30.372Z,2.20
2023-03-11T01:36:59.932Z,4.17
2023-03-11T01:39:28.249Z,3.17
2023-03-11T01:41:57.079Z,2.00
2023-03-11T01:44:25.379Z,2.17
2023-03-11T01:47:20.607Z,2.00
2023-03-11T01:49:50.562Z,1.77
2023-03-11T01:52:21.318Z,1.40
2023-03-11T01:54:51.845Z,2.27
2023-03-11T01:57:20.778Z,0.97
2023-03-11T01:59:50.937Z,1.40
2023-03-11T02:02:20.783Z,2.70
2023-03-11T02:04:49.168Z,2.53
2023-03-11T02:07:17.871Z,2.80
2023-03-11T02:09:47.608Z,2.10
2023-03-11T02:12:16.706Z,2.40
2023-03-11T02:14:46.633Z,1.83
2023-03-11T02:17:16.788Z,1.80
2023-03-11T02:19:55.884Z,1.90
2023-03-11T02:22:24.711Z,3.50
2023-03-11T02:25:00.658Z,3.10
2023-03-11T02:27:30.627Z,2.40
2023-03-11T02:30:00.631Z,2.10
2023-03-11T02:32:29.194Z,2.30
2023-03-11T02:34:57.718Z,1.83
2023-03-11T02:37:26.098Z,2.53
2023-03-11T02:39:55.224Z,2.40
2023-03-11T02:42:26.004Z,2.10
2023-03-11T02:45:09.144Z,2.30
2023-03-11T02:47:39.709Z,2.00
2023-03-11T02:50:08.271Z,2.07
2023-03-11T02:52:37.372Z,3.23
2023-03-11T02:55:05.968Z,2.07
2023-03-11T02:57:34.408Z,1.83
2023-03-11T03:00:10.572Z,2.50
2023-03-11T03:02:40.162Z,2.63
2023-03-11T03:05:09.402Z,2.47
2023-03-11T03:07:37.775Z,1.70
2023-03-11T03:10:06.955Z,2.10
2023-03-11T03:12:35.245Z,3.37
2023-03-11T03:15:03.885Z,2.33
2023-03-11T03:17:32.122Z,2.67
2023-03-11T03:20:01.818Z,2.33
2023-03-11T03:22:30.077Z,3.03
2023-03-11T03:24:58.382Z,3.10
2023-03-11T03:27:26.715Z,3.07
2023-03-11T03:29:54.908Z,3.67
2023-03-11T03:32:23.199Z,3.40
2023-03-11T03:34:51.472Z,3.17
2023-03-11T03:37:21.585Z,2.37
2023-03-11T03:39:50.069Z,2.20
2023-03-11T03:42:18.347Z,2.03
2023-03-11T03:44:46.686Z,1.97
2023-03-11T03:47:15.154Z,1.87
2023-03-11T03:49:43.528Z,2.33
2023-03-11T03:52:11.791Z,3.10
2023-03-11T03:54:41.375Z,2.30
2023-03-11T03:57:10.076Z,2.57
2023-03-11T03:59:38.404Z,2.17
2023-03-11T04:02:08.331Z,2.60
2023-03-11T04:04:36.646Z,2.90
2023-03-11T04:07:06.449Z,2.20
2023-03-11T04:09:34.897Z,2.40
2023-03-11T04:12:04.575Z,3.07
2023-03-11T04:14:32.915Z,2.40
2023-03-11T04:17:01.156Z,2.97
2023-03-11T04:19:29.408Z,3.37
2023-03-11T04:21:57.663Z,2.40
2023-03-11T04:24:27.282Z,3.00
2023-03-11T04:26:55.471Z,2.53
2023-03-11T04:29:25.125Z,4.00
2023-03-11T04:31:53.525Z,2.73
2023-03-11T04:34:22.008Z,3.20
2023-03-11T04:36:52.921Z,3.70
2023-03-11T04:39:21.199Z,2.60
2023-03-11T04:41:49.715Z,2.97
2023-03-11T04:44:17.980Z,2.43
2023-03-11T04:46:47.585Z,2.73
2023-03-11T04:49:15.835Z,3.67
2023-03-11T04:51:44.117Z,3.37
2023-03-11T04:54:12.718Z,3.70
2023-03-11T04:56:40.943Z,2.80
2023-03-11T04:59:09.225Z,3.03
2023-03-11T05:01:37.554Z,2.90
2023-03-11T05:04:07.319Z,4.00
2023-03-11T05:06:35.528Z,3.00
2023-03-11T05:09:04.713Z,4.13
2023-03-11T05:11:33.021Z,2.90
2023-03-11T05:14:01.317Z,3.60
2023-03-11T05:16:29.576Z,3.40
2023-03-11T05:18:57.797Z,3.53
2023-03-11T05:21:27.584Z,4.10
2023-03-11T05:23:55.784Z,3.80
2023-03-11T05:26:23.995Z,5.47
2023-03-11T05:28:52.249Z,3.40
2023-03-11T05:31:20.975Z,3.43
2023-03-11T05:33:49.248Z,4.23
2023-03-11T05:36:17.602Z,4.17
2023-03-11T05:38:47.508Z,4.07
2023-03-11T05:41:15.803Z,3.90
2023-03-11T05:43:45.578Z,3.40
2023-03-11T05:46:14.265Z,4.63
2023-03-11T05:48:42.690Z,4.23
2023-03-11T05:51:11.256Z,4.60
2023-03-11T05:53:39.766Z,3.80
2023-03-11T05:56:09.551Z,4.07
2023-03-11T05:58:37.936Z,4.20
2023-03-11T06:01:09.486Z,4.37
2023-03-11T06:03:38.135Z,3.80
2023-03-11T06:06:10.420Z,4.73
2023-03-11T06:08:38.783Z,4.63
2023-03-11T06:11:08.062Z,4.57
2023-03-11T06:13:38.013Z,5.03
2023-03-11T06:16:06.699Z,4.80
2023-03-11T06:18:35.208Z,4.17
2023-03-11T06:21:04.102Z,4.80
2023-03-11T06:23:33.595Z,3.73
2023-03-11T06:26:02.829Z,5.70
2023-03-11T06:28:31.413Z,4.40
2023-03-11T06:31:12.892Z,4.53
2023-03-11T06:33:41.202Z,4.43
2023-03-11T06:36:10.065Z,4.50
2023-03-11T06:38:38.299Z,5.00
2023-03-11T06:41:08.074Z,4.33
2023-03-11T06:43:37.332Z,6.07
2023-03-11T06:46:11.840Z,4.87
2023-03-11T06:48:40.458Z,5.03
2023-03-11T06:51:09.010Z,5.00
2023-03-11T06:53:37.270Z,4.40
2023-03-11T06:56:09.144Z,5.47
2023-03-11T06:58:38.373Z,5.67
2023-03-11T07:01:07.875Z,4.73
2023-03-11T07:03:39.003Z,6.23
2023-03-11T07:06:07.679Z,5.60
2023-03-11T07:08:36.394Z,5.80
2023-03-11T07:11:05.968Z,5.93
2023-03-11T07:13:34.261Z,5.60
2023-03-11T07:16:03.638Z,6.10
2023-03-11T07:18:31.964Z,7.03
2023-03-11T07:21:16.597Z,5.20
2023-03-11T07:23:45.583Z,6.40
2023-03-11T07:26:19.081Z,6.80
2023-03-11T07:28:49.315Z,6.10
2023-03-11T07:31:18.617Z,6.17
2023-03-11T07:33:47.305Z,6.90
2023-03-11T07:36:25.284Z,6.47
2023-03-11T07:38:58.292Z,7.40
2023-03-11T07:41:27.004Z,6.50
2023-03-11T07:43:56.601Z,6.57
2023-03-11T07:46:25.566Z,5.90
2023-03-11T07:48:54.296Z,7.00
2023-03-11T07:51:25.192Z,5.43
2023-03-11T07:53:54.136Z,6.00
2023-03-11T07:56:23.848Z,9.30
2023-03-11T07:58:52.619Z,5.63
2023-03-11T08:01:22.223Z,6.90
2023-03-11T08:03:56.858Z,6.87
2023-03-11T08:06:27.694Z,5.87
2023-03-11T08:08:57.324Z,6.73
2023-03-11T08:11:27.904Z,7.07
2023-03-11T08:13:58.050Z,6.53
2023-03-11T08:16:26.775Z,7.83
2023-03-11T08:18:57.720Z,6.63
2023-03-11T08:21:32.090Z,7.50
2023-03-11T08:24:01.443Z,4.43
2023-03-11T08:26:30.099Z,6.70
2023-03-11T08:28:59.302Z,5.30
2023-03-11T08:31:28.966Z,5.00
2023-03-11T08:33:58.636Z,3.97
2023-03-11T08:36:28.467Z,4.63
2023-03-11T08:38:56.783Z,4.50
2023-03-11T08:41:25.289Z,4.40
2023-03-11T08:43:53.606Z,0.87
2023-03-11T08:46:24.399Z,2.47
2023-03-11T08:48:53.216Z,0.90
2023-03-11T08:51:21.879Z,3.40
2023-03-11T08:53:52.202Z,5.80
2023-03-11T08:56:20.764Z,0.67
2023-03-11T08:58:49.051Z,3.90
2023-03-11T09:01:20.463Z,2.70
2023-03-11T09:03:50.564Z,2.37
2023-03-11T09:06:36.910Z,3.63
2023-03-11T09:09:29.051Z,2.50
2023-03-11T09:12:00.856Z,0.90
2023-03-11T09:14:33.203Z,2.90
2023-03-11T09:17:01.505Z,2.77
2023-03-11T09:19:32.869Z,2.47
2023-03-11T09:22:06.510Z,2.23
2023-03-11T09:24:45.961Z,1.70
2023-03-11T09:27:20.926Z,1.90
2023-03-11T09:29:53.106Z,2.07
2023-03-11T09:32:21.598Z,2.70
2023-03-11T09:34:54.742Z,2.13
2023-03-11T09:37:23.405Z,2.03
2023-03-11T09:39:53.296Z,2.10
2023-03-11T09:42:22.992Z,1.73
2023-03-11T09:44:56.225Z,2.77
2023-03-11T09:47:42.517Z,2.30
2023-03-11T09:50:19.665Z,2.10
2023-03-11T09:52:50.573Z,2.13
2023-03-11T09:55:33.429Z,6.40
2023-03-11T09:58:03.718Z,1.50
2023-03-11T10:00:32.547Z,2.00
2023-03-11T10:03:02.411Z,1.50
2023-03-11T10:05:32.812Z,1.57
2023-03-11T10:08:04.996Z,1.93
2023-03-11T10:10:41.273Z,1.70
2023-03-11T10:13:13.284Z,1.60
2023-03-11T10:15:49.847Z,1.53
2023-03-11T10:18:26.965Z,1.37
2023-03-11T10:20:59.218Z,1.67
2023-03-11T10:23:28.819Z,1.50
2023-03-11T10:26:02.769Z,1.37
2023-03-11T10:28:34.269Z,1.80
2023-03-11T10:31:06.726Z,1.43
2023-03-11T10:33:37.362Z,1.20
2023-03-11T10:36:06.674Z,1.17
2023-03-11T10:38:38.491Z,1.53
2023-03-11T10:41:09.524Z,1.40
2023-03-11T10:43:39.902Z,1.73
2023-03-11T10:46:13.196Z,1.73
2023-03-11T10:48:42.484Z,1.53
2023-03-11T10:51:16.240Z,1.50
2023-03-11T10:53:46.276Z,1.63
2023-03-11T10:56:25.813Z,3.70
2023-03-11T10:58:54.788Z,2.20
2023-03-11T11:01:25.996Z,1.50
2023-03-11T11:03:55.927Z,1.43
2023-03-11T11:06:26.353Z,1.47
2023-03-11T11:09:16.632Z,1.87
2023-03-11T11:12:01.652Z,1.00
2023-03-11T11:14:43.533Z,1.93
2023-03-11T11:17:24.755Z,1.10
2023-03-11T11:19:54.156Z,1.27
2023-03-11T11:22:24.147Z,1.37
2023-03-11T11:24:53.544Z,2.10
2023-03-11T11:27:24.745Z,1.80
2023-03-11T11:30:06.357Z,1.53
2023-03-11T11:32:35.764Z,1.70
2023-03-11T11:35:06.487Z,2.43
2023-03-11T11:37:36.886Z,1.70
2023-03-11T11:40:11.530Z,1.50
2023-03-11T11:42:45.823Z,1.27
2023-03-11T11:45:16.318Z,1.37
2023-03-11T11:47:46.662Z,1.17
2023-03-11T11:50:18.528Z,2.90
2023-03-11T11:52:49.201Z,1.37
2023-03-11T11:55:21.712Z,1.97
2023-03-11T11:57:51.759Z,1.80
2023-03-11T12:00:21.112Z,1.00
2023-03-11T12:03:07.690Z,1.73
2023-03-11T12:05:38.285Z,3.60
2023-03-11T12:08:12.071Z,1.77
2023-03-11T12:10:47.471Z,2.20
2023-03-11T12:13:22.995Z,1.53
2023-03-11T12:15:52.895Z,1.87
2023-03-11T12:18:23.938Z,1.60
2023-03-11T12:20:58.723Z,1.90
2023-03-11T12:23:34.568Z,1.70
2023-03-11T12:26:15.616Z,1.50
2023-03-11T12:28:49.826Z,1.43
2023-03-11T12:31:18.897Z,1.70
2023-03-11T12:33:48.712Z,1.60
2023-03-11T12:36:25.507Z,1.83
2023-03-11T12:38:55.777Z,1.50
2023-03-11T12:41:32.103Z,1.40
2023-03-11T12:44:06.004Z,1.10
2023-03-11T12:46:55.424Z,3.27
2023-03-11T12:49:25.375Z,2.03
2023-03-11T12:52:03.906Z,2.07
2023-03-11T12:54:34.143Z,2.40
2023-03-11T12:57:03.460Z,2.13
2023-03-11T12:59:53.922Z,1.57
2023-03-11T13:02:33.134Z,2.00
2023-03-11T13:05:15.388Z,1.63
2023-03-11T13:07:48.689Z,1.70
2023-03-11T13:10:22.390Z,1.80
2023-03-11T13:12:51.329Z,2.13
2023-03-11T13:15:32.074Z,2.10
2023-03-11T13:18:02.894Z,1.80
2023-03-11T13:20:44.549Z,1.60
2023-03-11T13:23:22.965Z,1.50
2023-03-11T13:26:06.747Z,1.97
2023-03-11T13:28:46.180Z,2.80
2023-03-11T13:31:29.520Z,1.50
2023-03-11T13:34:03.700Z,2.77
2023-03-11T13:36:38.744Z,1.57
2023-03-11T13:39:19.392Z,2.17
2023-03-11T13:41:49.068Z,1.90
2023-03-11T13:44:24.210Z,2.20
2023-03-11T13:46:54.734Z,1.70
2023-03-11T13:49:33.052Z,1.60
2023-03-11T13:52:30.347Z,1.80
2023-03-11T13:55:14.693Z,1.93
2023-03-11T14:00:58.108Z,2.03
2023-03-11T14:06:36.544Z,1.70
2023-03-11T14:09:06.139Z,1.43
2023-03-11T14:11:34.398Z,2.10
2023-03-11T14:14:02.921Z,1.47
2023-03-11T14:16:35.781Z,1.60
2023-03-11T14:19:07.368Z,1.80
2023-03-11T14:21:37.235Z,1.50
2023-03-11T14:24:05.741Z,1.70
2023-03-11T14:26:36.042Z,1.87
2023-03-11T14:29:09.655Z,1.53
2023-03-11T14:31:39.444Z,2.20
2023-03-11T14:34:15.442Z,1.80
2023-03-11T14:36:45.771Z,2.13
2023-03-11T14:39:27.933Z,2.03
2023-03-11T14:41:58.297Z,2.17
2023-03-11T14:44:27.916Z,1.67
2023-03-11T14:46:59.916Z,2.23
2023-03-11T14:49:28.409Z,1.67
2023-03-11T14:52:01.430Z,1.80
2023-03-11T14:54:31.623Z,1.57
2023-03-11T14:57:03.430Z,2.23
2023-03-11T14:59:33.586Z,1.83
2023-03-11T15:02:06.685Z,2.00
2023-03-11T15:04:35.864Z,1.57
2023-03-11T15:07:06.026Z,1.23
2023-03-11T15:09:34.630Z,2.23
2023-03-11T15:12:04.258Z,1.40
2023-03-11T15:14:33.460Z,1.57
2023-03-11T15:17:17.515Z,1.83
2023-03-11T15:19:55.774Z,1.93
2023-03-11T15:22:27.524Z,1.90
2023-03-11T15:24:57.897Z,1.50
2023-03-11T15:27:31.020Z,1.90
2023-03-11T15:30:00.225Z,1.50
2023-03-11T15:32:39.790Z,1.43
2023-03-11T15:35:18.870Z,1.90
2023-03-11T15:37:49.577Z,1.60
2023-03-11T15:40:42.472Z,1.60
2023-03-11T15:43:21.218Z,1.80
2023-03-11T15:45:50.000Z,1.60
2023-03-11T15:48:18.240Z,1.67
2023-03-11T15:50:53.725Z,1.60
2023-03-11T15:53:24.185Z,1.80
2023-03-11T15:55:52.705Z,2.17
2023-03-11T15:58:21.820Z,2.27
2023-03-11T16:00:51.052Z,1.30
2023-03-11T16:03:19.741Z,1.80
2023-03-11T16:05:48.076Z,1.90
2023-03-11T16:08:16.990Z,1.93
2023-03-11T16:10:49.337Z,1.80
2023-03-11T16:13:18.223Z,1.90
2023-03-11T16:15:46.968Z,1.53
2023-03-11T16:18:15.822Z,2.23
2023-03-11T16:20:45.649Z,2.33
2023-03-11T16:23:17.786Z,2.13
2023-03-11T16:25:46.564Z,1.90
2023-03-11T16:28:17.706Z,1.70
2023-03-11T16:30:46.621Z,1.87
2023-03-11T16:33:14.966Z,2.10
2023-03-11T16:35:44.167Z,1.70
2023-03-11T16:38:12.683Z,2.03
2023-03-11T16:40:41.054Z,2.20
2023-03-11T16:43:10.056Z,2.10
2023-03-11T16:45:39.731Z,2.33
2023-03-11T16:48:08.361Z,1.33
2023-03-11T16:50:37.725Z,1.30
2023-03-11T16:53:06.148Z,1.57
2023-03-11T16:55:34.606Z,1.40
2023-03-11T16:58:02.810Z,2.00
2023-03-11T17:00:31.306Z,2.13
2023-03-11T17:03:08.183Z,1.37
2023-03-11T17:05:36.426Z,1.60
2023-03-11T17:08:04.924Z,1.27
2023-03-11T17:10:38.090Z,2.03
2023-03-11T17:13:06.415Z,2.50
2023-03-11T17:15:35.983Z,2.47
2023-03-11T17:18:04.390Z,2.60
2023-03-11T17:20:34.149Z,1.50
2023-03-11T17:23:10.693Z,1.93
2023-03-11T17:25:41.570Z,2.33
2023-03-11T17:28:13.829Z,2.13
2023-03-11T17:30:43.811Z,2.10
2023-03-11T17:33:12.207Z,1.93
2023-03-11T17:35:41.889Z,2.10
2023-03-11T17:38:10.327Z,2.90
2023-03-11T17:40:39.302Z,2.53
2023-03-11T17:43:07.675Z,2.07
2023-03-11T17:45:35.983Z,3.53
2023-03-11T17:48:22.193Z,2.70
2023-03-11T17:50:51.845Z,4.23
2023-03-11T17:53:20.169Z,3.60
2023-03-11T17:55:48.587Z,2.37
2023-03-11T17:58:16.799Z,1.80
2023-03-11T18:00:45.112Z,2.80
2023-03-11T18:03:13.400Z,3.10
2023-03-11T18:05:41.593Z,3.80
2023-03-11T18:08:14.073Z,4.30
2023-03-11T18:10:42.348Z,3.53
2023-03-11T18:13:10.547Z,5.23
2023-03-11T18:15:38.891Z,4.27
2023-03-11T18:18:07.222Z,3.93
2023-03-11T18:20:35.452Z,4.40
2023-03-11T18:23:03.713Z,4.90
2023-03-11T18:25:33.491Z,4.07
2023-03-11T18:28:03.647Z,3.60
2023-03-11T18:30:31.935Z,2.80
2023-03-11T18:33:00.210Z,3.80
2023-03-11T18:35:28.486Z,6.60
2023-03-11T18:37:56.769Z,5.87
2023-03-11T18:40:26.821Z,5.23
2023-03-11T18:42:56.470Z,4.93
2023-03-11T18:45:24.760Z,5.03
2023-03-11T18:47:53.119Z,4.77
2023-03-11T18:50:21.762Z,5.27
2023-03-11T18:52:51.759Z,3.90
2023-03-11T18:55:20.243Z,4.63
2023-03-11T18:57:48.489Z,4.33
2023-03-11T19:00:22.554Z,4.57
2023-03-11T19:02:54.277Z,4.60
2023-03-11T19:05:22.914Z,4.43
2023-03-11T19:07:51.090Z,3.50
2023-03-11T19:10:20.082Z,4.10
2023-03-11T19:12:48.399Z,4.27
2023-03-11T19:15:18.222Z,4.47
2023-03-11T19:17:54.495Z,4.47
2023-03-11T19:20:30.524Z,5.20
2023-03-11T19:22:58.721Z,4.50
2023-03-11T19:25:28.061Z,5.27
2023-03-11T19:27:56.585Z,7.30
2023-03-11T19:30:26.431Z,5.87
2023-03-11T19:32:54.813Z,5.47
2023-03-11T19:35:23.749Z,5.70
2023-03-11T19:37:56.717Z,6.43
2023-03-11T19:40:29.691Z,6.33
2023-03-11T19:42:59.029Z,5.70
2023-03-11T19:45:29.589Z,6.90
2023-03-11T19:47:57.894Z,6.40
2023-03-11T19:50:26.149Z,7.00
2023-03-11T19:52:54.422Z,6.40
2023-03-11T19:55:24.107Z,8.77
2023-03-11T19:57:52.349Z,7.10
2023-03-11T20:00:21.242Z,10.70
2023-03-11T20:02:50.946Z,11.87
2023-03-11T20:05:19.411Z,11.30
2023-03-11T20:07:47.650Z,12.10
2023-03-11T20:10:17.533Z,12.10
2023-03-11T20:13:01.174Z,11.90
2023-03-11T20:15:30.341Z,11.93
2023-03-11T20:18:01.135Z,11.40
2023-03-11T20:20:29.753Z,11.87
2023-03-11T20:22:58.697Z,11.97
2023-03-11T20:25:29.630Z,11.57
2023-03-11T20:27:58.030Z,11.43
2023-03-11T20:30:26.589Z,10.70
2023-03-11T20:32:56.986Z,8.10
2023-03-11T20:35:26.705Z,7.97
2023-03-11T20:37:55.073Z,8.90
2023-03-11T20:40:23.965Z,9.07
2023-03-11T20:42:52.271Z,8.17
2023-03-11T20:45:22.077Z,8.00
2023-03-11T20:47:53.548Z,8.10
2023-03-11T20:50:22.419Z,9.47
2023-03-11T20:52:52.691Z,9.80
2023-03-11T20:55:22.731Z,9.17
2023-03-11T20:57:51.274Z,10.10
2023-03-11T21:00:20.483Z,8.47
2023-03-11T21:02:48.853Z,9.57
2023-03-11T21:05:17.337Z,8.93
2023-03-11T21:07:45.636Z,8.70
2023-03-11T21:10:16.146Z,6.90
2023-03-11T21:12:44.657Z,8.50
2023-03-11T21:15:14.305Z,8.30
2023-03-11T21:17:42.655Z,8.43
2023-03-11T21:20:11.795Z,8.40
2023-03-11T21:22:40.072Z,9.10
2023-03-11T21:25:08.860Z,7.63
2023-03-11T21:27:38.541Z,8.30
2023-03-11T21:30:07.547Z,9.17
2023-03-11T21:32:35.891Z,8.87
2023-03-11T21:35:05.870Z,8.97
2023-03-11T21:37:34.236Z,9.07
2023-03-11T21:40:02.900Z,8.47
2023-03-11T21:42:31.464Z,9.40
2023-03-11T21:45:01.155Z,8.63
2023-03-11T21:47:30.549Z,7.33
2023-03-11T21:49:58.744Z,8.50
2023-03-11T21:52:27.008Z,8.10
2023-03-11T21:54:56.519Z,7.33
2023-03-11T21:57:24.885Z,7.40
2023-03-11T21:59:53.147Z,7.20
2023-03-11T22:02:22.997Z,7.67
2023-03-11T22:04:51.268Z,8.27
2023-03-11T22:07:19.608Z,8.40
2023-03-11T22:09:47.999Z,9.27
2023-03-11T22:12:16.846Z,8.50
2023-03-11T22:14:45.239Z,9.20
2023-03-11T22:17:13.859Z,8.13
2023-03-11T22:19:43.718Z,8.60
2023-03-11T22:22:12.084Z,7.97
2023-03-11T22:24:40.348Z,8.20
2023-03-11T22:27:08.617Z,6.07
2023-03-11T22:29:38.631Z,7.97
2023-03-11T22:32:07.120Z,7.80
2023-03-11T22:34:35.436Z,6.90
2023-03-11T22:37:05.044Z,6.07
2023-03-11T22:39:33.312Z,5.77
2023-03-11T22:42:02.090Z,5.67
2023-03-11T22:44:30.699Z,5.37
2023-03-11T22:46:59.033Z,5.77
2023-03-11T22:49:27.431Z,4.80
2023-03-11T22:51:55.626Z,5.57
2023-03-11T22:54:25.869Z,5.53
2023-03-11T22:56:54.161Z,3.90
2023-03-11T22:59:22.370Z,5.20
2023-03-11T23:01:50.601Z,4.23
2023-03-11T23:04:18.871Z,4.60
2023-03-11T23:06:47.097Z,4.20
2023-03-11T23:09:15.681Z,4.50
2023-03-11T23:11:45.256Z,3.90
2023-03-11T23:14:13.470Z,4.43
2023-03-11T23:16:42.041Z,4.40
2023-03-11T23:19:10.738Z,4.40
2023-03-11T23:21:39.136Z,3.80
2023-03-11T23:24:10.300Z,3.53
2023-03-11T23:26:39.129Z,3.87
2023-03-11T23:29:08.703Z,3.40
2023-03-11T23:31:37.354Z,2.67
2023-03-11T23:34:06.509Z,2.97
2023-03-11T23:36:34.761Z,2.73
2023-03-11T23:39:02.989Z,2.83
2023-03-11T23:41:31.147Z,3.00
2023-03-11T23:43:59.452Z,2.80
2023-03-11T23:46:29.094Z,3.00
2023-03-11T23:48:57.449Z,2.80
2023-03-11T23:51:25.607Z,2.70
2023-03-11T23:53:53.909Z,2.70
2023-03-11T23:56:22.205Z,2.97
2023-03-11T23:58:50.488Z,2.90
